Main page
METAR-TAF:

METAR-TAF

Airports :

Liberal Mid-America Regional Airport

Liberal, Kansas, United States

latitude: 37-03N, longitude: 100-58W, elevation: 2883 ft

Current weather observation

The report was made 1 hour and 17 minutes ago, at 10:56 UTC
Wind 13 mph from the Northwest
Temperature 34°F
Humidity 69%
Pressure 29.68 in. Hg
Visibility: 10 miles
Clear sky

METAR: KLBL 041056Z AUTO 32011KT 10SM CLR 01/M04 A2968 RMK AO2 SLP041 T00111044 FZRANO

Time: 06:13 (12:13 UTC)


TAF: missing

Weather observations and forecasts of more than 4000 airports (METAR and TAF reports).

The available stations are represented by yellow and red dots on the map.

Hover mouse over dot to see the name of the station.

Then click to see weather observations and forecasts.

To change the map : click on the green buttons with a black cross to zoom in, on the green button with a dash to zoom out, or on the green arrows for adjacent maps.


METAR-TAF: